Dulac, LA (70353)

10:44 AM CST on December 26, 2014 (GMT -0600)
Schoen/Hutchinson Camps | Change Station
CLOSE
Current Station
Personal Weather Station
Location: Cocodrie, LA
Elevation: 0 ft
Nearby Weather Stations
Active Advisory: Areal Flood Watch

Elev 0 ft 29.35 °N, 90.63 °W | Updated 7 minutes ago

Mostly Cloudy
Mostly Cloudy
62.3 °F
Feels Like 62.3 °F
N
11.0
Wind Variable Wind from ENE

Today
High -- | Low -- °F
--% Chance of Precip.
Yesterday
High -- | Low -- °F
Precip. -- in
6:55 AM 5:11 PM
Waxing Crescent, 27% visible
Pressure 30.19 in
Visibility 7.0 miles
Clouds Mostly Cloudy 3500 ft
Dew Point 58 °F
Humidity 86%
Rainfall 0.00 in
Snow Depth Not available.
UV 2 out of 12
Pollen 5.10 out of 12
Air Quality Not available.
Flu Activity Not available.
METAR KHUM 261547Z 07008KT 7SM BKN035 17/13 A3019 RMK RY12/30 CLSD ATIS D VA/RY36 MS

More Conditions Fewer Conditions

Pressure 30.19 in
Visibility 7.0 miles
Clouds Mostly Cloudy 3500 ft
Dew Point 58 °F
Humidity 86%
Rainfall 0.00 in
Snow Depth Not available.
UV 2 out of 12
Pollen 5.10 out of 12
Air Quality Not available.
Flu Activity Not available.
METAR KHUM 261547Z 07008KT 7SM BKN035 17/13 A3019 RMK RY12/30 CLSD ATIS D VA/RY36 MS

More Conditions Fewer Conditions

10-Day Weather Forecast

Almanac

Astronomy

Dec. 26, 2014 Rise Set
Actual Time
Civil Twilight
Nautical Twilight
Astronomical Twilight
Moon
Length of Visible Light
Length of Day
Tomorrow will be .
, % of the Moon is Illuminated

Today's Extremes

State Highs State Lows

Community

WunderPhotos

Upload Photos

1,780,632 photos uploaded!

WunderBlogs® & News

Nearby

Air Quality

  Air Quality AQ Index Pollutant
Not available.

Snow Depth

Station Depth Elevation

Earthquake Activity

City Distance Mag. Time & Date
Minimum magnitude displayed is 2.5.

Coastal Water Temperatures

Place Temperature

Nearby Weather Stations